createdAt,value
2022-08-26T00:02:02.059Z,3.33
2022-08-26T00:05:07.502Z,5.57
2022-08-26T00:08:13.285Z,4.97
2022-08-26T00:11:26.341Z,4.68
2022-08-26T00:14:30.897Z,5.80
2022-08-26T00:17:35.878Z,3.55
2022-08-26T00:20:43.675Z,2.47
2022-08-26T00:23:47.682Z,5.35
2022-08-26T00:26:51.566Z,1.45
2022-08-26T00:29:56.002Z,6.07
2022-08-26T00:33:00.836Z,1.50
2022-08-26T00:36:06.322Z,3.53
2022-08-26T00:39:13.314Z,4.00
2022-08-26T00:42:17.849Z,8.05
2022-08-26T00:45:21.241Z,6.85
2022-08-26T00:48:30.721Z,1.95
2022-08-26T00:51:41.972Z,6.90
2022-08-26T00:55:03.715Z,5.43
2022-08-26T00:58:09.543Z,4.30
2022-08-26T01:01:17.479Z,3.15
2022-08-26T01:04:23.969Z,3.30
2022-08-26T01:07:34.748Z,4.82
2022-08-26T01:10:38.019Z,1.08
2022-08-26T01:13:43.231Z,3.88
2022-08-26T01:16:46.465Z,0.85
2022-08-26T01:19:55.693Z,0.70
2022-08-26T01:23:03.148Z,0.98
2022-08-26T01:26:36.725Z,1.75
2022-08-26T01:29:43.903Z,0.65
2022-08-26T01:32:49.734Z,2.42
2022-08-26T01:35:53.014Z,2.58
2022-08-26T01:38:57.205Z,0.52
2022-08-26T01:42:03.020Z,1.27
2022-08-26T01:45:07.637Z,2.80
2022-08-26T01:48:15.703Z,1.63
2022-08-26T01:51:21.454Z,3.75
2022-08-26T01:54:26.117Z,3.03
2022-08-26T01:57:31.763Z,3.92
2022-08-26T02:00:37.001Z,3.40
2022-08-26T02:03:52.409Z,3.28
2022-08-26T02:06:57.426Z,4.40
2022-08-26T02:10:03.277Z,1.20
2022-08-26T02:13:09.264Z,1.17
2022-08-26T02:16:17.044Z,5.07
2022-08-26T02:19:24.372Z,0.65
2022-08-26T02:22:29.559Z,7.13
2022-08-26T02:25:38.605Z,8.05
2022-08-26T02:28:52.343Z,1.88
2022-08-26T02:31:58.445Z,2.58
2022-08-26T02:35:02.446Z,0.83
2022-08-26T02:38:10.028Z,2.65
2022-08-26T02:41:14.988Z,2.17
2022-08-26T02:44:19.329Z,2.28
2022-08-26T02:47:24.909Z,4.78
2022-08-26T02:50:29.386Z,2.35
2022-08-26T02:53:35.570Z,7.15
2022-08-26T02:56:39.383Z,3.35
2022-08-26T02:59:43.535Z,5.30
2022-08-26T03:02:47.628Z,3.45
2022-08-26T03:05:54.738Z,1.08
2022-08-26T03:08:58.871Z,2.67
2022-08-26T03:12:03.040Z,2.22
2022-08-26T03:15:16.572Z,4.78
2022-08-26T03:18:23.755Z,0.85
2022-08-26T03:21:30.986Z,2.47
2022-08-26T03:24:35.453Z,1.20
2022-08-26T03:27:40.141Z,1.95
2022-08-26T03:30:47.108Z,0.45
2022-08-26T03:33:56.541Z,1.48
2022-08-26T03:37:03.424Z,1.00
2022-08-26T03:40:10.862Z,0.95
2022-08-26T03:43:14.511Z,1.80
2022-08-26T03:46:19.937Z,1.30
2022-08-26T03:49:24.431Z,2.30
2022-08-26T03:52:28.362Z,3.75
2022-08-26T03:55:33.678Z,1.05
2022-08-26T03:58:38.459Z,3.83
2022-08-26T04:01:42.832Z,1.17
2022-08-26T04:04:49.675Z,1.77
2022-08-26T04:07:53.158Z,0.88
2022-08-26T04:10:56.907Z,1.15
2022-08-26T04:14:01.878Z,1.70
2022-08-26T04:17:05.689Z,1.35
2022-08-26T04:20:10.082Z,0.75
2022-08-26T04:23:14.842Z,1.63
2022-08-26T04:26:21.910Z,0.93
2022-08-26T04:29:29.704Z,2.78
2022-08-26T04:32:34.167Z,1.10
2022-08-26T04:35:49.589Z,1.50
2022-08-26T04:39:13.722Z,6.70
2022-08-26T04:42:21.019Z,1.63
2022-08-26T04:45:36.407Z,0.65
2022-08-26T04:48:41.568Z,1.77
2022-08-26T04:51:45.162Z,4.10
2022-08-26T04:54:48.815Z,1.27
2022-08-26T04:57:54.121Z,0.47
2022-08-26T05:00:59.024Z,1.65
2022-08-26T05:04:05.039Z,1.65
2022-08-26T05:07:12.379Z,3.33
2022-08-26T05:10:16.828Z,2.67
2022-08-26T05:13:28.035Z,5.50
2022-08-26T05:16:32.418Z,0.43
2022-08-26T05:19:38.587Z,0.95
2022-08-26T05:22:46.853Z,1.95
2022-08-26T05:25:59.296Z,1.73
2022-08-26T05:29:08.390Z,3.08
2022-08-26T05:32:12.012Z,1.95
2022-08-26T05:35:16.389Z,2.22
2022-08-26T05:38:25.698Z,4.40
2022-08-26T05:41:38.616Z,0.40
2022-08-26T05:44:53.900Z,1.50
2022-08-26T05:48:02.614Z,2.60
2022-08-26T05:51:11.990Z,0.50
2022-08-26T05:54:22.409Z,7.95
2022-08-26T05:57:25.995Z,0.75
2022-08-26T06:00:30.101Z,0.98
2022-08-26T06:03:36.374Z,2.75
2022-08-26T06:06:43.686Z,6.65
2022-08-26T06:09:52.211Z,0.32
2022-08-26T06:13:09.273Z,1.00
2022-08-26T06:16:26.813Z,6.30
2022-08-26T06:19:34.408Z,0.68
2022-08-26T06:22:59.483Z,0.50
2022-08-26T06:26:07.401Z,1.52
2022-08-26T06:29:23.633Z,0.75
2022-08-26T06:32:28.732Z,0.40
2022-08-26T06:35:38.145Z,3.33
2022-08-26T06:38:42.488Z,2.83
2022-08-26T06:41:46.817Z,0.30
2022-08-26T06:44:53.669Z,4.50
2022-08-26T06:47:57.595Z,0.68
2022-08-26T06:51:18.218Z,4.88
2022-08-26T06:54:22.173Z,2.15
2022-08-26T06:57:25.235Z,0.40
2022-08-26T07:00:31.745Z,2.53
2022-08-26T07:03:39.652Z,0.20
2022-08-26T07:06:50.281Z,1.40
2022-08-26T07:09:56.842Z,0.70
2022-08-26T07:13:01.703Z,2.50
2022-08-26T07:16:08.510Z,6.38
2022-08-26T07:19:14.490Z,1.40
2022-08-26T07:22:20.581Z,3.22
2022-08-26T07:25:24.259Z,2.08
2022-08-26T07:28:29.200Z,2.65
2022-08-26T07:31:39.371Z,2.53
2022-08-26T07:34:46.848Z,7.47
2022-08-26T07:37:55.066Z,3.42
2022-08-26T07:41:00.619Z,4.97
2022-08-26T07:44:04.648Z,2.05
2022-08-26T07:47:24.779Z,2.53
2022-08-26T07:50:49.564Z,5.28
2022-08-26T07:53:55.147Z,0.90
2022-08-26T07:56:59.225Z,6.05
2022-08-26T08:00:04.580Z,9.52
2022-08-26T08:03:15.725Z,2.88
2022-08-26T08:06:26.979Z,3.40
2022-08-26T08:09:31.195Z,4.78
2022-08-26T08:12:34.937Z,1.85
2022-08-26T08:15:39.406Z,2.28
2022-08-26T08:18:43.129Z,2.83
2022-08-26T08:21:47.552Z,2.92
2022-08-26T08:24:53.070Z,4.50
2022-08-26T08:27:57.123Z,4.00
2022-08-26T08:31:02.917Z,5.35
2022-08-26T08:34:06.794Z,6.70
2022-08-26T08:37:11.039Z,3.25
2022-08-26T08:40:19.526Z,2.70
2022-08-26T08:43:45.210Z,7.15
2022-08-26T08:46:56.623Z,0.93
2022-08-26T08:50:11.130Z,0.57
2022-08-26T08:53:23.127Z,4.32
2022-08-26T08:56:34.084Z,3.00
2022-08-26T08:59:46.061Z,2.60
2022-08-26T09:03:12.895Z,2.38
2022-08-26T09:09:42.785Z,3.45
2022-08-26T09:12:48.256Z,2.25
2022-08-26T09:19:40.137Z,1.70
2022-08-26T09:22:44.320Z,2.60
2022-08-26T09:26:17.955Z,2.25
2022-08-26T09:29:44.199Z,1.73
2022-08-26T09:32:59.971Z,5.65
2022-08-26T09:36:24.788Z,2.72
2022-08-26T09:39:39.666Z,4.05
2022-08-26T09:42:43.252Z,5.88
2022-08-26T09:45:52.160Z,3.65
2022-08-26T09:49:27.289Z,1.85
2022-08-26T09:52:33.198Z,0.70
2022-08-26T09:55:38.536Z,3.70
2022-08-26T09:58:45.499Z,3.63
2022-08-26T10:01:49.395Z,1.02
2022-08-26T10:04:56.344Z,1.48
2022-08-26T10:08:01.286Z,4.20
2022-08-26T10:11:16.777Z,3.63
2022-08-26T10:14:27.673Z,4.85
2022-08-26T10:17:52.696Z,7.03
2022-08-26T10:21:18.028Z,4.72
2022-08-26T10:24:30.897Z,5.38
2022-08-26T10:27:50.989Z,6.70
2022-08-26T10:31:09.651Z,1.13
2022-08-26T10:34:14.688Z,1.60
2022-08-26T10:37:24.726Z,9.98
2022-08-26T10:40:45.963Z,8.18
2022-08-26T10:43:59.339Z,4.47
2022-08-26T10:47:11.060Z,6.50
2022-08-26T10:50:14.593Z,10.30
2022-08-26T10:53:25.191Z,7.50
2022-08-26T10:56:50.294Z,7.13
2022-08-26T11:00:30.300Z,6.50
2022-08-26T11:03:42.160Z,3.13
2022-08-26T11:06:47.108Z,2.78
2022-08-26T11:09:50.963Z,4.80
2022-08-26T11:12:59.766Z,4.40
2022-08-26T11:16:03.637Z,5.95
2022-08-26T11:19:12.281Z,4.57
2022-08-26T11:25:30.995Z,7.85
2022-08-26T11:28:47.042Z,7.20
2022-08-26T11:31:50.848Z,5.57
2022-08-26T11:34:59.800Z,10.38
2022-08-26T11:38:28.103Z,8.65
2022-08-26T11:41:32.860Z,16.33
2022-08-26T11:44:42.263Z,16.55
2022-08-26T11:47:55.241Z,10.50
2022-08-26T11:51:18.659Z,9.30
2022-08-26T11:54:30.463Z,9.68
2022-08-26T11:57:48.427Z,11.70
2022-08-26T12:00:58.962Z,16.05
2022-08-26T12:04:05.086Z,13.48
2022-08-26T12:07:10.211Z,12.07
2022-08-26T12:10:30.475Z,9.15
2022-08-26T12:13:34.961Z,15.18
2022-08-26T12:16:41.263Z,15.52
2022-08-26T12:19:45.314Z,9.48
2022-08-26T12:22:49.140Z,11.90
2022-08-26T12:25:54.736Z,13.27
2022-08-26T12:29:01.711Z,13.73
2022-08-26T12:32:18.905Z,11.90
2022-08-26T12:35:23.249Z,15.63
2022-08-26T12:38:28.048Z,11.52
2022-08-26T12:41:55.411Z,11.68
2022-08-26T12:45:01.964Z,12.88
2022-08-26T12:48:24.592Z,11.95
2022-08-26T12:51:33.520Z,15.95
2022-08-26T12:54:57.002Z,13.68
2022-08-26T12:58:17.594Z,19.17
2022-08-26T13:01:24.472Z,14.98
2022-08-26T13:04:43.724Z,15.02
2022-08-26T13:08:12.077Z,18.55
2022-08-26T13:11:28.598Z,15.23
2022-08-26T13:14:32.714Z,13.65
2022-08-26T13:17:36.569Z,14.63
2022-08-26T13:20:45.695Z,15.40
2022-08-26T13:23:52.073Z,8.48
2022-08-26T13:26:55.398Z,12.10
2022-08-26T13:30:00.463Z,12.10
2022-08-26T13:33:04.270Z,12.95
2022-08-26T13:36:08.429Z,8.25
2022-08-26T13:39:13.055Z,13.65
2022-08-26T13:42:19.410Z,11.20
2022-08-26T13:45:22.775Z,10.68
2022-08-26T13:48:26.794Z,10.90
2022-08-26T13:51:32.147Z,14.60
2022-08-26T13:54:36.791Z,8.02
2022-08-26T13:57:40.566Z,8.98
2022-08-26T14:00:44.539Z,11.30
2022-08-26T14:03:48.411Z,9.10
2022-08-26T14:06:52.178Z,6.40
2022-08-26T14:09:56.049Z,13.20
2022-08-26T14:12:59.876Z,9.05
2022-08-26T14:16:08.699Z,6.93
2022-08-26T14:19:12.601Z,8.75
2022-08-26T14:22:18.616Z,5.30
2022-08-26T14:25:22.703Z,5.55
2022-08-26T14:28:26.959Z,10.15
2022-08-26T14:31:32.356Z,6.82
2022-08-26T14:34:36.554Z,9.32
2022-08-26T14:37:40.281Z,6.55
2022-08-26T14:40:47.952Z,9.32
2022-08-26T14:44:00.719Z,7.10
2022-08-26T14:47:07.614Z,8.13
2022-08-26T14:50:11.262Z,8.30
2022-08-26T14:53:35.451Z,4.50
2022-08-26T14:56:49.361Z,7.55
2022-08-26T14:59:54.019Z,4.88
2022-08-26T15:02:58.933Z,5.18
2022-08-26T15:06:03.209Z,7.45
2022-08-26T15:09:07.752Z,5.80
2022-08-26T15:12:11.485Z,6.10
2022-08-26T15:15:18.233Z,4.53
2022-08-26T15:18:22.812Z,7.10
2022-08-26T15:21:27.238Z,11.77
2022-08-26T15:24:31.558Z,5.47
2022-08-26T15:27:35.445Z,6.35
2022-08-26T15:30:39.734Z,5.13
2022-08-26T15:33:43.550Z,6.55
2022-08-26T15:36:48.738Z,6.22
2022-08-26T15:39:53.440Z,6.13
2022-08-26T15:43:11.418Z,5.25
2022-08-26T15:46:21.270Z,7.40
2022-08-26T15:49:25.459Z,5.97
2022-08-26T15:52:28.868Z,8.05
2022-08-26T15:55:32.898Z,5.82
2022-08-26T15:58:37.099Z,7.13
2022-08-26T16:01:41.643Z,5.03
2022-08-26T16:04:45.420Z,6.15
2022-08-26T16:07:49.499Z,6.57
2022-08-26T16:10:53.427Z,6.25
2022-08-26T16:13:57.513Z,8.32
2022-08-26T16:17:01.637Z,4.35
2022-08-26T16:20:06.201Z,5.90
2022-08-26T16:23:10.029Z,7.65
2022-08-26T16:26:17.510Z,4.80
2022-08-26T16:29:21.010Z,5.13
2022-08-26T16:32:29.385Z,6.18
2022-08-26T16:35:35.169Z,4.78
2022-08-26T16:38:40.648Z,4.35
2022-08-26T16:41:44.965Z,5.00
2022-08-26T16:44:48.676Z,3.13
2022-08-26T16:47:53.236Z,4.32
2022-08-26T16:50:56.718Z,5.38
2022-08-26T16:54:03.073Z,3.25
2022-08-26T16:57:07.575Z,3.35
2022-08-26T17:00:25.146Z,3.55
2022-08-26T17:03:28.764Z,5.47
2022-08-26T17:06:32.599Z,5.43
2022-08-26T17:09:36.325Z,6.72
2022-08-26T17:12:42.064Z,5.88
2022-08-26T17:15:58.337Z,5.63
2022-08-26T17:19:05.051Z,4.35
2022-08-26T17:22:10.611Z,4.00
2022-08-26T17:25:22.633Z,4.00
2022-08-26T17:28:26.254Z,3.40
2022-08-26T17:31:30.207Z,3.58
2022-08-26T17:34:34.190Z,3.70
2022-08-26T17:37:38.529Z,4.20
2022-08-26T17:40:42.821Z,4.07
2022-08-26T17:43:48.651Z,7.15
2022-08-26T17:46:53.665Z,3.80
2022-08-26T17:49:57.566Z,2.63
2022-08-26T17:53:01.346Z,3.45
2022-08-26T17:56:09.697Z,3.80
2022-08-26T17:59:13.815Z,3.53
2022-08-26T18:02:17.988Z,3.60
2022-08-26T18:05:22.070Z,4.85
2022-08-26T18:08:25.878Z,3.38
2022-08-26T18:11:31.227Z,3.15
2022-08-26T18:14:35.198Z,4.75
2022-08-26T18:17:40.372Z,5.05
2022-08-26T18:20:46.593Z,3.20
2022-08-26T18:23:57.832Z,3.17
2022-08-26T18:27:01.694Z,7.65
2022-08-26T18:30:10.496Z,3.17
2022-08-26T18:33:15.420Z,3.15
2022-08-26T18:36:24.706Z,4.30
2022-08-26T18:39:28.316Z,3.80
2022-08-26T18:42:32.615Z,10.05
2022-08-26T18:45:36.684Z,5.00
2022-08-26T18:48:41.511Z,6.45
2022-08-26T18:51:46.022Z,6.60
2022-08-26T18:54:49.734Z,4.45
2022-08-26T18:57:53.737Z,3.42
2022-08-26T19:00:57.187Z,4.93
2022-08-26T19:04:02.651Z,5.70
2022-08-26T19:07:06.487Z,3.83
2022-08-26T19:10:10.267Z,3.92
2022-08-26T19:13:14.171Z,5.45
2022-08-26T19:16:21.979Z,5.97
2022-08-26T19:19:25.448Z,5.47
2022-08-26T19:22:29.160Z,3.08
2022-08-26T19:25:32.928Z,3.53
2022-08-26T19:28:37.574Z,3.08
2022-08-26T19:31:41.784Z,4.70
2022-08-26T19:34:47.131Z,3.92
2022-08-26T19:37:51.381Z,4.47
2022-08-26T19:40:55.086Z,3.60
2022-08-26T19:43:59.800Z,5.35
2022-08-26T19:47:04.409Z,3.90
2022-08-26T19:50:12.045Z,3.70
2022-08-26T19:53:15.968Z,3.90
2022-08-26T19:56:20.726Z,5.78
2022-08-26T19:59:24.091Z,4.57
2022-08-26T20:02:29.145Z,5.22
2022-08-26T20:05:32.394Z,7.30
2022-08-26T20:08:38.956Z,5.25
2022-08-26T20:11:42.854Z,4.63
2022-08-26T20:14:46.234Z,5.63
2022-08-26T20:17:50.229Z,4.18
2022-08-26T20:21:12.708Z,3.40
2022-08-26T20:24:18.873Z,4.18
2022-08-26T20:27:34.697Z,4.72
2022-08-26T20:30:42.072Z,4.43
2022-08-26T20:33:46.769Z,3.58
2022-08-26T20:36:51.719Z,4.43
2022-08-26T20:39:58.695Z,4.40
2022-08-26T20:43:02.420Z,5.15
2022-08-26T20:46:10.385Z,3.75
2022-08-26T20:49:20.883Z,3.78
2022-08-26T20:52:24.345Z,4.78
2022-08-26T20:55:28.209Z,5.30
2022-08-26T20:58:31.835Z,5.18
2022-08-26T21:01:36.872Z,8.90
2022-08-26T21:04:45.849Z,6.82
2022-08-26T21:07:49.930Z,5.85
2022-08-26T21:10:53.654Z,4.88
2022-08-26T21:14:07.135Z,6.72
2022-08-26T21:17:19.922Z,4.80
2022-08-26T21:20:23.317Z,4.72
2022-08-26T21:23:29.275Z,5.20
2022-08-26T21:26:32.987Z,5.50
2022-08-26T21:29:38.059Z,3.60
2022-08-26T21:32:41.946Z,7.03
2022-08-26T21:35:55.387Z,7.10
2022-08-26T21:39:00.693Z,4.90
2022-08-26T21:42:04.625Z,6.93
2022-08-26T21:45:08.896Z,6.35
2022-08-26T21:48:12.408Z,7.80
2022-08-26T21:51:17.737Z,9.05
2022-08-26T21:54:21.410Z,11.10
2022-08-26T21:57:28.169Z,6.25
2022-08-26T22:00:31.975Z,7.63
2022-08-26T22:03:40.712Z,8.38
2022-08-26T22:06:53.859Z,10.07
2022-08-26T22:09:57.727Z,7.47
2022-08-26T22:13:01.438Z,7.95
2022-08-26T22:16:07.046Z,6.68
2022-08-26T22:19:13.727Z,6.70
2022-08-26T22:22:21.028Z,6.80
2022-08-26T22:25:24.487Z,5.90
2022-08-26T22:28:29.267Z,4.93
2022-08-26T22:31:37.741Z,7.55
2022-08-26T22:34:42.825Z,5.07
2022-08-26T22:37:45.978Z,5.60
2022-08-26T22:40:52.811Z,7.20
2022-08-26T22:43:56.386Z,7.95
2022-08-26T22:47:01.742Z,12.10
2022-08-26T22:50:06.665Z,8.80
2022-08-26T22:53:10.785Z,13.25
2022-08-26T22:56:15.102Z,9.82
2022-08-26T22:59:18.694Z,10.85
2022-08-26T23:02:22.740Z,8.40
2022-08-26T23:05:27.097Z,28.85
2022-08-26T23:08:30.582Z,7.88
2022-08-26T23:11:34.675Z,10.25
2022-08-26T23:14:38.210Z,10.95
2022-08-26T23:17:42.218Z,12.30
2022-08-26T23:20:46.118Z,11.15
2022-08-26T23:23:51.308Z,9.30
2022-08-26T23:26:54.637Z,9.00
2022-08-26T23:29:58.194Z,14.70
2022-08-26T23:33:02.179Z,9.38
2022-08-26T23:36:17.058Z,11.45
2022-08-26T23:39:22.196Z,8.23
2022-08-26T23:42:26.212Z,14.00
2022-08-26T23:48:36.571Z,10.27
2022-08-26T23:51:58.252Z,10.88
2022-08-26T23:55:01.794Z,13.32
2022-08-26T23:58:06.645Z,13.70
